createdAt,value
2018-09-28T00:01:17.659Z,10.90
2018-09-28T00:03:46.171Z,10.80
2018-09-28T00:11:10.306Z,10.80
2018-09-28T00:13:38.855Z,10.60
2018-09-28T00:16:08.238Z,10.60
2018-09-28T00:18:37.986Z,10.50
2018-09-28T00:21:06.840Z,10.50
2018-09-28T00:23:35.470Z,10.50
2018-09-28T00:26:04.134Z,10.40
2018-09-28T00:28:32.581Z,10.40
2018-09-28T00:31:01.055Z,10.40
2018-09-28T00:33:31.412Z,10.50
2018-09-28T00:36:00.030Z,10.50
2018-09-28T00:38:28.506Z,10.50
2018-09-28T00:40:57.265Z,10.50
2018-09-28T00:43:25.823Z,10.50
2018-09-28T00:45:54.372Z,10.50
2018-09-28T00:48:22.915Z,10.50
2018-09-28T00:50:52.227Z,10.50
2018-09-28T00:53:20.706Z,10.50
2018-09-28T00:55:49.214Z,10.50
2018-09-28T00:58:17.747Z,10.50
2018-09-28T01:00:46.262Z,10.50
2018-09-28T01:08:13.961Z,10.50
2018-09-28T01:10:42.458Z,10.30
2018-09-28T01:13:10.954Z,10.40
2018-09-28T01:15:39.451Z,10.30
2018-09-28T01:18:07.910Z,10.30
2018-09-28T01:20:36.444Z,10.30
2018-09-28T01:23:04.969Z,10.30
2018-09-28T01:25:33.479Z,10.30
2018-09-28T01:28:01.950Z,10.20
2018-09-28T01:30:31.299Z,10.30
2018-09-28T01:32:59.797Z,10.30
2018-09-28T01:35:29.166Z,10.30
2018-09-28T01:37:57.662Z,10.30
2018-09-28T01:40:26.155Z,10.20
2018-09-28T01:42:54.627Z,10.20
2018-09-28T01:45:23.162Z,10.20
2018-09-28T01:47:51.686Z,10.30
2018-09-28T01:50:20.214Z,10.30
2018-09-28T01:52:48.734Z,10.20
2018-09-28T01:55:17.470Z,10.20
2018-09-28T01:57:45.933Z,10.20
2018-09-28T02:05:12.074Z,10.20
2018-09-28T02:07:40.616Z,10.20
2018-09-28T02:10:09.122Z,10.20
2018-09-28T02:12:38.476Z,10.10
2018-09-28T02:15:06.899Z,10.10
2018-09-28T02:17:35.438Z,10.20
2018-09-28T02:20:04.638Z,10.20
2018-09-28T02:22:33.378Z,10.20
2018-09-28T02:25:01.869Z,10.20
2018-09-28T02:27:30.370Z,10.20
2018-09-28T02:29:59.003Z,10.30
2018-09-28T02:32:27.558Z,10.20
2018-09-28T02:34:56.407Z,10.30
2018-09-28T02:37:25.662Z,10.30
2018-09-28T02:39:54.143Z,10.30
2018-09-28T02:42:22.672Z,10.30
2018-09-28T02:44:51.161Z,10.30
2018-09-28T02:47:19.654Z,10.20
2018-09-28T02:49:48.154Z,10.20
2018-09-28T02:52:17.463Z,10.20
2018-09-28T02:54:45.941Z,10.20
2018-09-28T03:02:21.198Z,10.20
2018-09-28T03:04:49.735Z,10.10
2018-09-28T03:07:18.215Z,10.00
2018-09-28T03:09:47.432Z,10.10
2018-09-28T03:17:09.047Z,10.10
2018-09-28T03:19:37.664Z,10.00
2018-09-28T03:22:06.206Z,9.90
2018-09-28T03:24:34.986Z,9.90
2018-09-28T03:27:03.563Z,9.90
2018-09-28T03:29:32.094Z,9.90
2018-09-28T03:32:00.617Z,9.90
2018-09-28T03:34:30.085Z,9.90
2018-09-28T03:36:58.566Z,9.90
2018-09-28T03:39:27.718Z,9.90
2018-09-28T03:41:56.209Z,9.80
2018-09-28T03:44:24.689Z,9.80
2018-09-28T03:46:53.606Z,9.80
2018-09-28T03:49:22.089Z,9.80
2018-09-28T03:51:50.561Z,9.80
2018-09-28T03:54:19.052Z,9.80
2018-09-28T03:56:47.525Z,9.80
2018-09-28T03:59:17.334Z,9.90
2018-09-28T04:01:45.857Z,9.90
2018-09-28T04:09:14.017Z,9.90
2018-09-28T04:11:42.506Z,9.80
2018-09-28T04:14:10.999Z,9.80
2018-09-28T04:16:39.526Z,9.80
2018-09-28T04:19:08.026Z,9.70
2018-09-28T04:21:36.546Z,9.70
2018-09-28T04:24:05.202Z,9.60
2018-09-28T04:26:33.725Z,9.60
2018-09-28T04:29:02.257Z,9.60
2018-09-28T04:31:31.109Z,9.70
2018-09-28T04:33:59.662Z,9.60
2018-09-28T04:36:28.229Z,9.70
2018-09-28T04:38:56.806Z,9.70
2018-09-28T04:41:25.918Z,9.70
2018-09-28T04:43:54.442Z,9.70
2018-09-28T04:46:23.260Z,9.80
2018-09-28T04:48:52.194Z,9.80
2018-09-28T04:51:20.983Z,9.80
2018-09-28T04:53:50.662Z,9.80
2018-09-28T04:56:19.145Z,9.80
2018-09-28T04:58:47.755Z,9.80
2018-09-28T05:06:11.242Z,9.70
2018-09-28T05:08:39.763Z,9.60
2018-09-28T05:11:08.270Z,9.70
2018-09-28T05:13:37.248Z,9.70
2018-09-28T05:16:05.739Z,9.70
2018-09-28T05:18:34.445Z,9.70
2018-09-28T05:21:03.130Z,9.70
2018-09-28T05:23:31.670Z,9.80
2018-09-28T05:26:00.155Z,9.80
2018-09-28T05:28:28.662Z,9.80
2018-09-28T05:30:57.179Z,9.80
2018-09-28T05:33:25.727Z,9.80
2018-09-28T05:35:54.308Z,9.80
2018-09-28T05:38:22.827Z,9.90
2018-09-28T05:40:51.638Z,9.90
2018-09-28T05:43:20.966Z,9.90
2018-09-28T05:45:49.478Z,10.00
2018-09-28T05:48:17.954Z,10.00
2018-09-28T05:50:46.454Z,10.00
2018-09-28T05:58:16.702Z,10.10
2018-09-28T06:00:50.474Z,10.20
2018-09-28T06:03:20.332Z,10.20
2018-09-28T06:05:54.080Z,10.20
2018-09-28T06:08:22.638Z,10.30
2018-09-28T06:10:51.120Z,10.40
2018-09-28T06:13:20.994Z,10.50
2018-09-28T06:15:50.138Z,10.60
2018-09-28T06:18:18.654Z,10.70
2018-09-28T06:20:49.463Z,10.80
2018-09-28T06:23:17.993Z,10.90
2018-09-28T06:25:47.559Z,11.00
2018-09-28T06:28:17.414Z,11.10
2018-09-28T06:30:45.921Z,11.20
2018-09-28T06:43:09.323Z,11.40
2018-09-28T06:45:38.970Z,11.50
2018-09-28T06:48:07.593Z,11.60
2018-09-28T06:50:36.066Z,11.70
2018-09-28T06:53:04.598Z,11.90
2018-09-28T06:55:33.102Z,12.10
2018-09-28T06:58:01.641Z,12.20
2018-09-28T07:00:30.137Z,12.30
2018-09-28T07:02:58.712Z,12.50
2018-09-28T07:05:27.359Z,12.70
2018-09-28T07:07:56.126Z,12.90
2018-09-28T07:10:24.601Z,13.50
2018-09-28T07:12:53.375Z,14.80
2018-09-28T07:15:21.900Z,16.90
2018-09-28T07:17:50.535Z,19.20
2018-09-28T07:20:19.056Z,21.20
2018-09-28T07:22:47.685Z,22.20
2018-09-28T07:30:11.878Z,24.40
2018-09-28T07:32:40.397Z,25.40
2018-09-28T07:35:08.954Z,26.30
2018-09-28T07:37:37.474Z,26.40
2018-09-28T07:40:06.018Z,26.90
2018-09-28T07:42:34.530Z,27.50
2018-09-28T07:45:03.086Z,28.50
2018-09-28T07:47:33.432Z,28.90
2018-09-28T07:50:01.934Z,29.10
2018-09-28T07:52:30.562Z,28.90
2018-09-28T07:54:59.080Z,29.40
2018-09-28T07:57:27.588Z,29.70
2018-09-28T07:59:56.104Z,30.30
2018-09-28T08:02:24.590Z,30.10
2018-09-28T08:04:53.100Z,29.70
2018-09-28T08:07:21.650Z,30.70
2018-09-28T08:09:50.273Z,31.20
2018-09-28T08:12:18.762Z,32.10
2018-09-28T08:14:48.078Z,31.70
2018-09-28T08:17:17.386Z,31.20
2018-09-28T08:19:45.914Z,30.20
2018-09-28T08:22:15.612Z,30.30
2018-09-28T08:24:44.341Z,30.60
2018-09-28T08:27:12.710Z,31.10
2018-09-28T08:29:41.255Z,31.70
2018-09-28T08:34:38.231Z,33.00
2018-09-28T08:37:07.113Z,31.70
2018-09-28T08:39:35.606Z,31.80
2018-09-28T08:42:04.214Z,33.10
2018-09-28T08:44:32.793Z,34.20
2018-09-28T08:47:01.295Z,34.40
2018-09-28T08:49:30.670Z,33.70
2018-09-28T08:52:00.127Z,34.30
2018-09-28T08:54:28.613Z,35.00
2018-09-28T08:56:57.262Z,35.30
2018-09-28T08:59:26.692Z,36.10
2018-09-28T09:01:55.191Z,34.80
2018-09-28T09:04:23.735Z,34.60
2018-09-28T09:06:52.291Z,35.10
2018-09-28T09:09:20.780Z,35.40
2018-09-28T09:11:49.263Z,36.00
2018-09-28T09:14:17.768Z,36.50
2018-09-28T09:16:46.300Z,37.60
2018-09-28T09:24:17.555Z,37.90
2018-09-28T09:26:46.139Z,37.60
2018-09-28T09:34:15.625Z,37.00
2018-09-28T09:36:44.127Z,35.90
2018-09-28T09:39:13.127Z,35.70
2018-09-28T09:41:42.078Z,36.00
2018-09-28T09:44:10.608Z,36.40
2018-09-28T09:46:39.394Z,36.50
2018-09-28T09:49:07.942Z,36.10
2018-09-28T09:51:37.071Z,35.70
2018-09-28T09:54:05.565Z,34.80
2018-09-28T09:56:34.073Z,34.50
2018-09-28T09:59:02.582Z,34.90
2018-09-28T10:03:42.919Z,35.10
2018-09-28T10:06:11.389Z,34.20
2018-09-28T10:08:39.865Z,32.20
2018-09-28T10:11:08.365Z,30.90
2018-09-28T10:13:36.831Z,30.10
2018-09-28T10:16:05.308Z,29.30
2018-09-28T10:18:33.816Z,28.30
2018-09-28T10:21:02.289Z,27.70
2018-09-28T10:23:30.778Z,27.30
2018-09-28T10:25:59.743Z,26.80
2018-09-28T10:28:28.314Z,26.50
2018-09-28T10:30:56.805Z,25.90
2018-09-28T10:33:25.360Z,25.70
2018-09-28T10:35:53.869Z,25.50
2018-09-28T10:38:22.377Z,25.40
2018-09-28T10:40:50.945Z,25.00
2018-09-28T10:43:19.971Z,24.60
2018-09-28T10:45:48.474Z,24.20
2018-09-28T10:48:18.216Z,24.30
2018-09-28T10:50:46.757Z,24.50
2018-09-28T10:58:12.021Z,24.60
2018-09-28T11:00:40.509Z,24.20
2018-09-28T11:03:09.084Z,24.20
2018-09-28T11:05:37.714Z,24.20
2018-09-28T11:08:06.232Z,24.00
2018-09-28T11:10:41.177Z,24.00
2018-09-28T11:13:09.626Z,23.90
2018-09-28T11:15:38.632Z,23.90
2018-09-28T11:18:07.089Z,23.70
2018-09-28T11:20:35.564Z,23.60
2018-09-28T11:23:04.026Z,23.60
2018-09-28T11:25:33.206Z,23.50
2018-09-28T11:28:01.715Z,23.20
2018-09-28T11:30:30.282Z,23.10
2018-09-28T11:32:58.827Z,23.20
2018-09-28T11:35:27.544Z,23.20
2018-09-28T11:37:56.095Z,23.20
2018-09-28T11:40:24.898Z,23.40
2018-09-28T11:42:53.378Z,23.40
2018-09-28T11:45:21.993Z,23.50
2018-09-28T11:47:51.166Z,23.50
2018-09-28T11:50:19.637Z,23.40
2018-09-28T11:52:48.147Z,23.50
2018-09-28T11:55:18.483Z,23.50
2018-09-28T11:57:47.008Z,23.50
2018-09-28T12:05:15.931Z,23.40
2018-09-28T12:07:44.414Z,23.10
2018-09-28T12:10:12.997Z,23.10
2018-09-28T12:12:41.600Z,23.00
2018-09-28T12:15:10.071Z,23.10
2018-09-28T12:17:38.596Z,23.10
2018-09-28T12:20:08.331Z,23.10
2018-09-28T12:22:36.959Z,23.00
2018-09-28T12:25:05.772Z,23.10
2018-09-28T12:27:35.210Z,23.10
2018-09-28T12:30:03.720Z,23.00
2018-09-28T12:32:32.217Z,23.00
2018-09-28T12:35:01.854Z,23.00
2018-09-28T12:37:30.475Z,23.00
2018-09-28T12:39:59.007Z,23.10
2018-09-28T12:42:27.654Z,23.10
2018-09-28T12:44:56.163Z,23.20
2018-09-28T12:47:24.650Z,23.10
2018-09-28T12:49:53.475Z,23.20
2018-09-28T12:52:22.026Z,23.10
2018-09-28T12:54:52.456Z,23.10
2018-09-28T12:57:21.863Z,23.00
2018-09-28T12:59:50.390Z,22.90
2018-09-28T13:02:18.999Z,22.90
2018-09-28T13:04:47.549Z,22.90
2018-09-28T13:07:17.447Z,22.90
2018-09-28T13:09:46.083Z,22.90
2018-09-28T13:17:15.022Z,22.90
2018-09-28T13:19:43.626Z,22.90
2018-09-28T13:22:12.183Z,22.80
2018-09-28T13:24:40.849Z,22.80
2018-09-28T13:27:09.439Z,22.80
2018-09-28T13:29:40.690Z,22.80
2018-09-28T13:32:09.514Z,22.90
2018-09-28T13:34:38.621Z,22.90
2018-09-28T13:37:07.394Z,22.80
2018-09-28T13:39:36.506Z,22.80
2018-09-28T13:42:05.015Z,22.80
2018-09-28T13:44:33.543Z,22.70
2018-09-28T13:47:02.231Z,22.70
2018-09-28T13:49:30.823Z,22.70
2018-09-28T13:51:59.324Z,22.70
2018-09-28T13:54:27.996Z,22.80
2018-09-28T13:56:56.446Z,22.80
2018-09-28T13:59:25.907Z,22.70
2018-09-28T14:01:54.524Z,22.60
2018-09-28T14:04:23.095Z,22.60
2018-09-28T14:06:51.708Z,22.60
2018-09-28T14:09:20.286Z,22.60
2018-09-28T14:11:48.799Z,22.60
2018-09-28T14:14:17.481Z,22.60
2018-09-28T14:16:46.107Z,22.60
2018-09-28T14:24:10.694Z,22.60
2018-09-28T14:26:39.175Z,22.30
2018-09-28T14:29:07.769Z,22.40
2018-09-28T14:31:36.267Z,22.30
2018-09-28T14:34:04.807Z,22.30
2018-09-28T14:36:33.323Z,22.30
2018-09-28T14:39:01.896Z,22.10
2018-09-28T14:41:30.403Z,22.10
2018-09-28T14:43:58.913Z,22.10
2018-09-28T14:46:27.581Z,22.10
2018-09-28T14:48:56.270Z,22.10
2018-09-28T14:51:24.585Z,22.20
2018-09-28T14:53:53.079Z,22.20
2018-09-28T14:56:22.359Z,22.30
2018-09-28T14:58:50.878Z,22.10
2018-09-28T15:01:20.376Z,22.10
2018-09-28T15:03:48.838Z,22.00
2018-09-28T15:06:17.722Z,22.00
2018-09-28T15:08:46.348Z,21.90
2018-09-28T15:16:14.961Z,21.80
2018-09-28T15:18:43.490Z,21.70
2018-09-28T15:21:12.115Z,21.50
2018-09-28T15:23:40.696Z,21.40
2018-09-28T15:26:09.218Z,21.20
2018-09-28T15:28:37.827Z,21.20
2018-09-28T15:31:06.621Z,21.20
2018-09-28T15:33:35.178Z,21.10
2018-09-28T15:36:03.695Z,21.10
2018-09-28T15:38:32.896Z,21.20
2018-09-28T15:41:01.407Z,21.00
2018-09-28T15:43:29.893Z,20.80
2018-09-28T15:45:58.401Z,20.70
2018-09-28T15:48:26.892Z,20.70
2018-09-28T15:50:55.435Z,20.60
2018-09-28T15:53:24.038Z,20.50
2018-09-28T15:55:52.635Z,20.40
2018-09-28T15:58:21.151Z,20.40
2018-09-28T16:00:49.992Z,20.40
2018-09-28T16:03:18.963Z,20.30
2018-09-28T16:05:47.529Z,20.30
2018-09-28T16:13:09.313Z,20.20
2018-09-28T16:15:37.810Z,19.90
2018-09-28T16:18:06.327Z,19.90
2018-09-28T16:20:34.838Z,19.80
2018-09-28T16:23:03.386Z,19.80
2018-09-28T16:25:31.894Z,19.70
2018-09-28T16:28:00.444Z,19.70
2018-09-28T16:30:28.921Z,19.60
2018-09-28T16:32:58.406Z,19.50
2018-09-28T16:35:26.969Z,19.50
2018-09-28T16:37:55.474Z,19.40
2018-09-28T16:40:24.005Z,19.30
2018-09-28T16:42:52.568Z,19.20
2018-09-28T16:45:21.070Z,19.10
2018-09-28T16:47:49.556Z,19.00
2018-09-28T16:50:18.069Z,18.90
2018-09-28T16:52:46.578Z,18.80
2018-09-28T16:57:27.346Z,18.70
2018-09-28T16:59:55.889Z,18.60
2018-09-28T17:02:24.403Z,18.30
2018-09-28T17:04:53.828Z,18.20
2018-09-28T17:07:22.322Z,18.10
2018-09-28T17:09:50.791Z,18.00
2018-09-28T17:12:19.545Z,17.90
2018-09-28T17:14:48.084Z,17.80
2018-09-28T17:17:17.419Z,17.70
2018-09-28T17:19:45.974Z,17.60
2018-09-28T17:27:14.329Z,17.50
2018-09-28T17:29:42.860Z,17.30
2018-09-28T17:32:11.411Z,17.20
2018-09-28T17:34:40.119Z,17.10
2018-09-28T17:37:08.759Z,17.00
2018-09-28T17:39:37.392Z,16.90
2018-09-28T17:42:06.596Z,16.90
2018-09-28T17:44:35.137Z,16.90
2018-09-28T17:47:03.602Z,16.90
2018-09-28T17:49:32.119Z,16.80
2018-09-28T17:52:00.626Z,16.80
2018-09-28T17:54:29.694Z,16.80
2018-09-28T17:56:58.226Z,16.80
2018-09-28T17:59:26.796Z,16.80
2018-09-28T18:01:55.307Z,16.80
2018-09-28T18:04:24.196Z,16.80
2018-09-28T18:06:53.571Z,16.80
2018-09-28T18:09:22.072Z,16.80
2018-09-28T18:11:50.588Z,16.90
2018-09-28T18:14:19.827Z,16.90
2018-09-28T18:16:48.310Z,16.90
2018-09-28T18:19:17.451Z,16.90
2018-09-28T18:21:45.975Z,16.80
2018-09-28T18:29:13.372Z,16.60
2018-09-28T18:31:42.023Z,16.40
2018-09-28T18:34:10.921Z,16.20
2018-09-28T18:36:39.450Z,16.10
2018-09-28T18:39:08.932Z,16.20
2018-09-28T18:41:37.649Z,16.10
2018-09-28T18:44:06.270Z,16.10
2018-09-28T18:46:35.407Z,16.10
2018-09-28T18:49:03.921Z,16.00
2018-09-28T18:51:32.461Z,16.00
2018-09-28T18:54:01.894Z,16.00
2018-09-28T18:56:30.383Z,16.00
2018-09-28T18:58:58.906Z,16.00
2018-09-28T19:01:27.407Z,16.00
2018-09-28T19:03:55.939Z,16.00
2018-09-28T19:06:24.478Z,16.00
2018-09-28T19:08:54.050Z,16.10
2018-09-28T19:11:22.582Z,16.00
2018-09-28T19:13:51.343Z,16.00
2018-09-28T19:16:19.908Z,16.00
2018-09-28T19:18:48.562Z,16.00
2018-09-28T19:21:17.545Z,16.00
2018-09-28T19:23:46.069Z,16.00
2018-09-28T19:31:11.919Z,15.80
2018-09-28T19:33:40.427Z,15.70
2018-09-28T19:36:08.938Z,15.60
2018-09-28T19:38:37.562Z,15.60
2018-09-28T19:41:06.219Z,15.60
2018-09-28T19:43:34.878Z,15.60
2018-09-28T19:46:04.350Z,15.60
2018-09-28T19:48:34.074Z,15.60
2018-09-28T19:51:02.655Z,15.50
2018-09-28T19:53:31.259Z,15.50
2018-09-28T19:55:59.758Z,15.40
2018-09-28T19:58:28.286Z,15.20
2018-09-28T20:00:56.839Z,15.10
2018-09-28T20:03:25.359Z,14.90
2018-09-28T20:05:54.424Z,14.70
2018-09-28T20:08:23.063Z,14.50
2018-09-28T20:10:52.814Z,14.30
2018-09-28T20:13:21.539Z,14.20
2018-09-28T20:15:50.708Z,14.20
2018-09-28T20:18:19.606Z,14.00
2018-09-28T20:20:48.232Z,14.00
2018-09-28T20:23:18.846Z,14.00
2018-09-28T20:25:47.346Z,13.90
2018-09-28T20:33:09.240Z,13.70
2018-09-28T20:35:38.012Z,13.60
2018-09-28T20:38:06.802Z,13.60
2018-09-28T20:40:36.108Z,13.50
2018-09-28T20:43:04.728Z,13.50
2018-09-28T20:45:34.659Z,13.40
2018-09-28T20:48:03.199Z,13.30
2018-09-28T20:50:31.740Z,13.30
2018-09-28T20:53:00.349Z,13.30
2018-09-28T20:55:29.112Z,13.30
2018-09-28T20:57:57.593Z,13.40
2018-09-28T21:00:26.432Z,13.40
2018-09-28T21:02:54.995Z,13.50
2018-09-28T21:05:23.632Z,13.50
2018-09-28T21:07:52.241Z,13.50
2018-09-28T21:10:20.755Z,13.50
2018-09-28T21:12:50.001Z,13.40
2018-09-28T21:15:18.521Z,13.30
2018-09-28T21:17:47.594Z,13.30
2018-09-28T21:20:17.482Z,13.30
2018-09-28T21:22:45.982Z,13.30
2018-09-28T21:30:10.234Z,13.20
2018-09-28T21:32:38.766Z,13.20
2018-09-28T21:35:07.316Z,13.10
2018-09-28T21:37:35.892Z,13.00
2018-09-28T21:40:04.462Z,13.00
2018-09-28T21:42:32.929Z,13.00
2018-09-28T21:45:01.486Z,12.90
2018-09-28T21:47:30.493Z,12.90
2018-09-28T21:49:58.981Z,12.90
2018-09-28T21:52:27.519Z,12.90
2018-09-28T21:54:56.036Z,12.80
2018-09-28T21:57:24.546Z,12.90
2018-09-28T21:59:53.112Z,12.80
2018-09-28T22:02:21.648Z,12.70
2018-09-28T22:04:50.256Z,12.70
2018-09-28T22:07:18.685Z,12.70
2018-09-28T22:09:47.159Z,12.70
2018-09-28T22:12:17.435Z,12.80
2018-09-28T22:14:46.539Z,12.70
2018-09-28T22:22:15.653Z,12.70
2018-09-28T22:24:44.137Z,12.60
2018-09-28T22:27:12.630Z,12.50
2018-09-28T22:29:41.149Z,12.50
2018-09-28T22:32:09.644Z,12.50
2018-09-28T22:34:38.599Z,12.50
2018-09-28T22:37:07.157Z,12.40
2018-09-28T22:39:35.687Z,12.50
2018-09-28T22:42:04.187Z,12.50
2018-09-28T22:44:33.222Z,12.50
2018-09-28T22:47:01.723Z,12.40
2018-09-28T22:49:30.186Z,12.40
2018-09-28T22:51:58.728Z,12.40
2018-09-28T22:54:27.259Z,12.20
2018-09-28T22:56:55.782Z,12.10
2018-09-28T22:59:24.307Z,12.10
2018-09-28T23:01:52.801Z,12.00
2018-09-28T23:04:21.286Z,11.90
2018-09-28T23:06:50.169Z,11.90
2018-09-28T23:09:18.644Z,11.90
2018-09-28T23:11:47.134Z,11.90
2018-09-28T23:14:17.419Z,11.90
2018-09-28T23:16:46.686Z,12.00
2018-09-28T23:24:14.814Z,12.10
2018-09-28T23:26:43.792Z,12.20
2018-09-28T23:29:12.505Z,12.20
2018-09-28T23:31:41.205Z,12.30
2018-09-28T23:34:09.981Z,12.30
2018-09-28T23:36:38.656Z,12.40
2018-09-28T23:39:09.032Z,12.50
2018-09-28T23:41:37.967Z,12.60
2018-09-28T23:44:07.048Z,12.60
2018-09-28T23:46:35.615Z,12.60
2018-09-28T23:49:04.469Z,12.60
2018-09-28T23:51:33.054Z,12.60
2018-09-28T23:54:01.651Z,12.60
2018-09-28T23:56:30.145Z,12.50
2018-09-28T23:58:58.673Z,12.50
